sensor_id;sensor_type;location;lat;lon;timestamp;P1;durP1;ratioP1;P2;durP2;ratioP2
6735;SDS011;3405;50.576;12.364;2023-06-14T00:00:18;3.97;;;3.40;;
6735;SDS011;3405;50.576;12.364;2023-06-14T00:02:45;4.60;;;3.55;;
6735;SDS011;3405;50.576;12.364;2023-06-14T00:05:11;4.15;;;3.05;;
6735;SDS011;3405;50.576;12.364;2023-06-14T00:07:40;5.00;;;3.17;;
6735;SDS011;3405;50.576;12.364;2023-06-14T00:10:10;3.45;;;3.15;;
6735;SDS011;3405;50.576;12.364;2023-06-14T00:12:38;3.33;;;3.03;;
6735;SDS011;3405;50.576;12.364;2023-06-14T00:15:04;4.85;;;3.22;;
6735;SDS011;3405;50.576;12.364;2023-06-14T00:17:30;3.67;;;2.97;;
6735;SDS011;3405;50.576;12.364;2023-06-14T00:19:57;3.05;;;2.75;;
6735;SDS011;3405;50.576;12.364;2023-06-14T00:22:23;3.95;;;3.13;;
6735;SDS011;3405;50.576;12.364;2023-06-14T00:24:49;4.65;;;3.10;;
6735;SDS011;3405;50.576;12.364;2023-06-14T00:27:15;4.15;;;3.40;;
6735;SDS011;3405;50.576;12.364;2023-06-14T00:29:41;6.18;;;3.22;;
6735;SDS011;3405;50.576;12.364;2023-06-14T00:32:07;4.38;;;3.10;;
6735;SDS011;3405;50.576;12.364;2023-06-14T00:34:33;4.05;;;3.10;;
6735;SDS011;3405;50.576;12.364;2023-06-14T00:36:59;3.53;;;3.15;;
6735;SDS011;3405;50.576;12.364;2023-06-14T00:39:25;3.33;;;3.03;;
6735;SDS011;3405;50.576;12.364;2023-06-14T00:41:51;8.27;;;3.10;;
6735;SDS011;3405;50.576;12.364;2023-06-14T00:44:17;4.47;;;3.30;;
6735;SDS011;3405;50.576;12.364;2023-06-14T00:46:44;4.03;;;3.00;;
6735;SDS011;3405;50.576;12.364;2023-06-14T00:49:10;3.85;;;2.75;;
6735;SDS011;3405;50.576;12.364;2023-06-14T00:51:37;3.38;;;2.90;;
6735;SDS011;3405;50.576;12.364;2023-06-14T00:54:04;3.97;;;2.83;;
6735;SDS011;3405;50.576;12.364;2023-06-14T00:56:30;3.15;;;2.85;;
6735;SDS011;3405;50.576;12.364;2023-06-14T00:58:56;3.78;;;3.05;;
6735;SDS011;3405;50.576;12.364;2023-06-14T01:01:23;3.33;;;2.95;;
6735;SDS011;3405;50.576;12.364;2023-06-14T01:03:49;6.22;;;3.00;;
6735;SDS011;3405;50.576;12.364;2023-06-14T01:06:20;5.20;;;3.10;;
6735;SDS011;3405;50.576;12.364;2023-06-14T01:11:31;4.03;;;3.05;;
6735;SDS011;3405;50.576;12.364;2023-06-14T01:13:58;4.32;;;3.13;;
6735;SDS011;3405;50.576;12.364;2023-06-14T01:16:25;3.72;;;2.90;;
6735;SDS011;3405;50.576;12.364;2023-06-14T01:18:52;3.75;;;3.20;;
6735;SDS011;3405;50.576;12.364;2023-06-14T01:21:21;3.15;;;2.85;;
6735;SDS011;3405;50.576;12.364;2023-06-14T01:23:47;4.57;;;3.13;;
6735;SDS011;3405;50.576;12.364;2023-06-14T01:26:17;4.97;;;3.33;;
6735;SDS011;3405;50.576;12.364;2023-06-14T01:28:43;3.42;;;3.10;;
6735;SDS011;3405;50.576;12.364;2023-06-14T01:31:13;3.80;;;3.03;;
6735;SDS011;3405;50.576;12.364;2023-06-14T01:33:41;5.10;;;2.80;;
6735;SDS011;3405;50.576;12.364;2023-06-14T01:36:07;3.72;;;3.00;;
6735;SDS011;3405;50.576;12.364;2023-06-14T01:38:34;3.88;;;2.85;;
6735;SDS011;3405;50.576;12.364;2023-06-14T01:41:00;3.42;;;2.92;;
6735;SDS011;3405;50.576;12.364;2023-06-14T01:43:27;4.13;;;3.00;;
6735;SDS011;3405;50.576;12.364;2023-06-14T01:45:53;4.03;;;2.80;;
6735;SDS011;3405;50.576;12.364;2023-06-14T01:48:21;3.65;;;2.80;;
6735;SDS011;3405;50.576;12.364;2023-06-14T01:50:48;4.18;;;2.80;;
6735;SDS011;3405;50.576;12.364;2023-06-14T01:53:14;3.28;;;2.88;;
6735;SDS011;3405;50.576;12.364;2023-06-14T01:55:40;3.90;;;2.90;;
6735;SDS011;3405;50.576;12.364;2023-06-14T01:58:08;3.25;;;2.83;;
6735;SDS011;3405;50.576;12.364;2023-06-14T02:00:35;4.15;;;2.88;;
6735;SDS011;3405;50.576;12.364;2023-06-14T02:03:01;3.10;;;2.80;;
6735;SDS011;3405;50.576;12.364;2023-06-14T02:05:29;3.25;;;2.83;;
6735;SDS011;3405;50.576;12.364;2023-06-14T02:07:55;3.10;;;2.60;;
6735;SDS011;3405;50.576;12.364;2023-06-14T02:10:21;4.15;;;3.05;;
6735;SDS011;3405;50.576;12.364;2023-06-14T02:12:47;2.70;;;2.50;;
6735;SDS011;3405;50.576;12.364;2023-06-14T02:15:13;4.00;;;2.47;;
6735;SDS011;3405;50.576;12.364;2023-06-14T02:17:42;3.05;;;2.75;;
6735;SDS011;3405;50.576;12.364;2023-06-14T02:20:08;2.97;;;2.65;;
6735;SDS011;3405;50.576;12.364;2023-06-14T02:22:34;3.17;;;2.63;;
6735;SDS011;3405;50.576;12.364;2023-06-14T02:25:00;4.75;;;2.55;;
6735;SDS011;3405;50.576;12.364;2023-06-14T02:27:26;6.25;;;2.30;;
6735;SDS011;3405;50.576;12.364;2023-06-14T02:29:52;2.80;;;2.60;;
6735;SDS011;3405;50.576;12.364;2023-06-14T02:32:18;2.90;;;2.60;;
6735;SDS011;3405;50.576;12.364;2023-06-14T02:34:44;4.65;;;2.95;;
6735;SDS011;3405;50.576;12.364;2023-06-14T02:37:14;3.13;;;2.83;;
6735;SDS011;3405;50.576;12.364;2023-06-14T02:39:40;2.45;;;2.25;;
6735;SDS011;3405;50.576;12.364;2023-06-14T02:42:06;4.13;;;2.80;;
6735;SDS011;3405;50.576;12.364;2023-06-14T02:44:32;5.10;;;2.60;;
6735;SDS011;3405;50.576;12.364;2023-06-14T02:46:58;3.88;;;2.50;;
6735;SDS011;3405;50.576;12.364;2023-06-14T02:49:25;2.90;;;2.60;;
6735;SDS011;3405;50.576;12.364;2023-06-14T02:51:51;3.38;;;2.47;;
6735;SDS011;3405;50.576;12.364;2023-06-14T02:54:17;4.05;;;2.58;;
6735;SDS011;3405;50.576;12.364;2023-06-14T02:56:43;5.57;;;2.45;;
6735;SDS011;3405;50.576;12.364;2023-06-14T02:59:09;3.25;;;2.47;;
6735;SDS011;3405;50.576;12.364;2023-06-14T03:01:35;5.90;;;2.95;;
6735;SDS011;3405;50.576;12.364;2023-06-14T03:04:05;2.70;;;2.50;;
6735;SDS011;3405;50.576;12.364;2023-06-14T03:06:31;3.08;;;2.72;;
6735;SDS011;3405;50.576;12.364;2023-06-14T03:08:58;5.30;;;2.92;;
6735;SDS011;3405;50.576;12.364;2023-06-14T03:11:25;4.00;;;2.78;;
6735;SDS011;3405;50.576;12.364;2023-06-14T03:13:51;3.42;;;3.08;;
6735;SDS011;3405;50.576;12.364;2023-06-14T03:16:17;3.67;;;3.08;;
6735;SDS011;3405;50.576;12.364;2023-06-14T03:18:46;3.35;;;2.67;;
6735;SDS011;3405;50.576;12.364;2023-06-14T03:21:12;3.30;;;3.00;;
6735;SDS011;3405;50.576;12.364;2023-06-14T03:23:38;2.47;;;2.28;;
6735;SDS011;3405;50.576;12.364;2023-06-14T03:26:04;3.22;;;2.92;;
6735;SDS011;3405;50.576;12.364;2023-06-14T03:28:30;2.88;;;2.63;;
6735;SDS011;3405;50.576;12.364;2023-06-14T03:30:56;3.03;;;2.42;;
6735;SDS011;3405;50.576;12.364;2023-06-14T03:33:22;3.30;;;2.50;;
6735;SDS011;3405;50.576;12.364;2023-06-14T03:35:48;2.60;;;2.40;;
6735;SDS011;3405;50.576;12.364;2023-06-14T03:38:14;3.22;;;2.92;;
6735;SDS011;3405;50.576;12.364;2023-06-14T03:40:40;5.13;;;2.65;;
6735;SDS011;3405;50.576;12.364;2023-06-14T03:43:06;3.50;;;2.50;;
6735;SDS011;3405;50.576;12.364;2023-06-14T03:45:32;3.25;;;2.72;;
6735;SDS011;3405;50.576;12.364;2023-06-14T03:47:58;2.95;;;2.60;;
6735;SDS011;3405;50.576;12.364;2023-06-14T03:50:25;4.22;;;2.72;;
6735;SDS011;3405;50.576;12.364;2023-06-14T03:52:52;4.60;;;2.63;;
6735;SDS011;3405;50.576;12.364;2023-06-14T03:55:18;4.10;;;2.67;;
6735;SDS011;3405;50.576;12.364;2023-06-14T03:57:44;3.10;;;2.50;;
6735;SDS011;3405;50.576;12.364;2023-06-14T04:00:10;3.58;;;2.30;;
6735;SDS011;3405;50.576;12.364;2023-06-14T04:02:37;5.07;;;3.08;;
6735;SDS011;3405;50.576;12.364;2023-06-14T04:05:03;2.95;;;2.40;;
6735;SDS011;3405;50.576;12.364;2023-06-14T04:07:33;2.50;;;2.30;;
6735;SDS011;3405;50.576;12.364;2023-06-14T04:10:04;2.60;;;2.22;;
6735;SDS011;3405;50.576;12.364;2023-06-14T04:12:30;3.75;;;2.47;;
6735;SDS011;3405;50.576;12.364;2023-06-14T04:14:56;2.85;;;2.42;;
6735;SDS011;3405;50.576;12.364;2023-06-14T04:17:22;5.07;;;2.17;;
6735;SDS011;3405;50.576;12.364;2023-06-14T04:19:48;3.40;;;2.10;;
6735;SDS011;3405;50.576;12.364;2023-06-14T04:22:14;2.92;;;2.38;;
6735;SDS011;3405;50.576;12.364;2023-06-14T04:24:40;3.22;;;2.53;;
6735;SDS011;3405;50.576;12.364;2023-06-14T04:27:07;8.00;;;2.40;;
6735;SDS011;3405;50.576;12.364;2023-06-14T04:29:33;5.93;;;2.58;;
6735;SDS011;3405;50.576;12.364;2023-06-14T04:31:59;6.18;;;3.10;;
6735;SDS011;3405;50.576;12.364;2023-06-14T04:34:26;5.15;;;2.25;;
6735;SDS011;3405;50.576;12.364;2023-06-14T04:36:54;3.45;;;2.35;;
6735;SDS011;3405;50.576;12.364;2023-06-14T04:39:21;4.78;;;2.67;;
6735;SDS011;3405;50.576;12.364;2023-06-14T04:41:47;4.30;;;2.20;;
6735;SDS011;3405;50.576;12.364;2023-06-14T04:44:17;2.95;;;2.50;;
6735;SDS011;3405;50.576;12.364;2023-06-14T04:46:44;2.95;;;2.30;;
6735;SDS011;3405;50.576;12.364;2023-06-14T04:49:14;2.40;;;2.20;;
6735;SDS011;3405;50.576;12.364;2023-06-14T04:51:43;3.25;;;2.88;;
6735;SDS011;3405;50.576;12.364;2023-06-14T04:54:10;4.15;;;2.35;;
6735;SDS011;3405;50.576;12.364;2023-06-14T04:56:38;5.00;;;2.65;;
6735;SDS011;3405;50.576;12.364;2023-06-14T04:59:04;5.93;;;2.78;;
6735;SDS011;3405;50.576;12.364;2023-06-14T05:01:31;2.75;;;2.50;;
6735;SDS011;3405;50.576;12.364;2023-06-14T05:03:57;5.50;;;3.13;;
6735;SDS011;3405;50.576;12.364;2023-06-14T05:06:23;3.10;;;2.40;;
6735;SDS011;3405;50.576;12.364;2023-06-14T05:08:49;2.83;;;2.22;;
6735;SDS011;3405;50.576;12.364;2023-06-14T05:11:15;3.63;;;2.60;;
6735;SDS011;3405;50.576;12.364;2023-06-14T05:13:44;3.40;;;2.75;;
6735;SDS011;3405;50.576;12.364;2023-06-14T05:16:11;3.60;;;2.47;;
6735;SDS011;3405;50.576;12.364;2023-06-14T05:18:37;2.92;;;2.30;;
6735;SDS011;3405;50.576;12.364;2023-06-14T05:21:05;2.67;;;2.10;;
6735;SDS011;3405;50.576;12.364;2023-06-14T05:23:31;3.13;;;2.78;;
6735;SDS011;3405;50.576;12.364;2023-06-14T05:25:56;4.18;;;2.65;;
6735;SDS011;3405;50.576;12.364;2023-06-14T05:28:23;4.03;;;3.00;;
6735;SDS011;3405;50.576;12.364;2023-06-14T05:30:49;3.10;;;2.60;;
6735;SDS011;3405;50.576;12.364;2023-06-14T05:33:15;3.47;;;2.67;;
6735;SDS011;3405;50.576;12.364;2023-06-14T05:35:41;2.95;;;2.63;;
6735;SDS011;3405;50.576;12.364;2023-06-14T05:38:07;3.42;;;2.72;;
6735;SDS011;3405;50.576;12.364;2023-06-14T05:40:33;4.05;;;2.50;;
6735;SDS011;3405;50.576;12.364;2023-06-14T05:42:59;4.22;;;2.42;;
6735;SDS011;3405;50.576;12.364;2023-06-14T05:45:25;4.22;;;2.55;;
6735;SDS011;3405;50.576;12.364;2023-06-14T05:47:51;2.92;;;2.58;;
6735;SDS011;3405;50.576;12.364;2023-06-14T05:50:19;3.88;;;2.80;;
6735;SDS011;3405;50.576;12.364;2023-06-14T05:52:45;2.30;;;2.10;;
6735;SDS011;3405;50.576;12.364;2023-06-14T05:55:11;2.80;;;2.50;;
6735;SDS011;3405;50.576;12.364;2023-06-14T05:57:37;3.05;;;2.38;;
6735;SDS011;3405;50.576;12.364;2023-06-14T06:00:04;2.35;;;2.15;;
6735;SDS011;3405;50.576;12.364;2023-06-14T06:02:35;3.53;;;2.53;;
6735;SDS011;3405;50.576;12.364;2023-06-14T06:05:01;2.80;;;2.22;;
6735;SDS011;3405;50.576;12.364;2023-06-14T06:07:27;3.90;;;2.58;;
6735;SDS011;3405;50.576;12.364;2023-06-14T06:09:53;2.40;;;2.20;;
6735;SDS011;3405;50.576;12.364;2023-06-14T06:12:19;2.33;;;2.13;;
6735;SDS011;3405;50.576;12.364;2023-06-14T06:14:45;2.85;;;2.42;;
6735;SDS011;3405;50.576;12.364;2023-06-14T06:17:11;2.50;;;2.30;;
6735;SDS011;3405;50.576;12.364;2023-06-14T06:19:37;3.10;;;2.40;;
6735;SDS011;3405;50.576;12.364;2023-06-14T06:22:03;3.17;;;2.50;;
6735;SDS011;3405;50.576;12.364;2023-06-14T06:24:31;2.58;;;2.38;;
6735;SDS011;3405;50.576;12.364;2023-06-14T06:26:57;2.85;;;2.42;;
6735;SDS011;3405;50.576;12.364;2023-06-14T06:29:23;4.18;;;2.30;;
6735;SDS011;3405;50.576;12.364;2023-06-14T06:31:49;2.20;;;2.00;;
6735;SDS011;3405;50.576;12.364;2023-06-14T06:34:15;3.13;;;2.20;;
6735;SDS011;3405;50.576;12.364;2023-06-14T06:36:40;2.55;;;2.35;;
6735;SDS011;3405;50.576;12.364;2023-06-14T06:39:07;2.38;;;2.17;;
6735;SDS011;3405;50.576;12.364;2023-06-14T06:41:35;2.78;;;2.55;;
6735;SDS011;3405;50.576;12.364;2023-06-14T06:44:02;3.33;;;2.72;;
6735;SDS011;3405;50.576;12.364;2023-06-14T06:46:28;2.85;;;2.30;;
6735;SDS011;3405;50.576;12.364;2023-06-14T06:48:54;3.30;;;2.50;;
6735;SDS011;3405;50.576;12.364;2023-06-14T06:51:20;2.90;;;2.30;;
6735;SDS011;3405;50.576;12.364;2023-06-14T06:53:51;5.93;;;2.38;;
6735;SDS011;3405;50.576;12.364;2023-06-14T06:56:18;2.75;;;2.20;;
6735;SDS011;3405;50.576;12.364;2023-06-14T06:58:44;4.43;;;2.42;;
6735;SDS011;3405;50.576;12.364;2023-06-14T07:01:10;2.47;;;2.15;;
6735;SDS011;3405;50.576;12.364;2023-06-14T07:03:36;4.13;;;2.35;;
6735;SDS011;3405;50.576;12.364;2023-06-14T07:06:02;2.53;;;2.28;;
6735;SDS011;3405;50.576;12.364;2023-06-14T07:08:29;2.72;;;2.53;;
6735;SDS011;3405;50.576;12.364;2023-06-14T07:10:55;2.17;;;1.98;;
6735;SDS011;3405;50.576;12.364;2023-06-14T07:13:20;5.15;;;2.47;;
6735;SDS011;3405;50.576;12.364;2023-06-14T07:15:46;3.50;;;2.45;;
6735;SDS011;3405;50.576;12.364;2023-06-14T07:18:13;4.05;;;2.70;;
6735;SDS011;3405;50.576;12.364;2023-06-14T07:20:38;3.67;;;2.42;;
6735;SDS011;3405;50.576;12.364;2023-06-14T07:23:05;3.75;;;2.13;;
6735;SDS011;3405;50.576;12.364;2023-06-14T07:25:31;2.30;;;2.10;;
6735;SDS011;3405;50.576;12.364;2023-06-14T07:27:57;2.25;;;2.05;;
6735;SDS011;3405;50.576;12.364;2023-06-14T07:30:23;2.33;;;2.15;;
6735;SDS011;3405;50.576;12.364;2023-06-14T07:32:51;2.88;;;2.50;;
6735;SDS011;3405;50.576;12.364;2023-06-14T07:35:17;3.25;;;2.22;;
6735;SDS011;3405;50.576;12.364;2023-06-14T07:37:43;3.95;;;2.58;;
6735;SDS011;3405;50.576;12.364;2023-06-14T07:40:10;2.30;;;2.10;;
6735;SDS011;3405;50.576;12.364;2023-06-14T07:42:36;4.28;;;1.85;;
6735;SDS011;3405;50.576;12.364;2023-06-14T07:45:03;2.67;;;2.30;;
6735;SDS011;3405;50.576;12.364;2023-06-14T07:47:29;2.38;;;2.17;;
6735;SDS011;3405;50.576;12.364;2023-06-14T07:49:55;4.13;;;2.83;;
6735;SDS011;3405;50.576;12.364;2023-06-14T07:52:21;2.50;;;2.30;;
6735;SDS011;3405;50.576;12.364;2023-06-14T07:54:47;2.38;;;2.08;;
6735;SDS011;3405;50.576;12.364;2023-06-14T07:57:13;3.78;;;2.20;;
6735;SDS011;3405;50.576;12.364;2023-06-14T07:59:39;2.85;;;2.60;;
6735;SDS011;3405;50.576;12.364;2023-06-14T08:02:05;2.60;;;2.40;;
6735;SDS011;3405;50.576;12.364;2023-06-14T08:04:31;3.85;;;2.17;;
6735;SDS011;3405;50.576;12.364;2023-06-14T08:06:57;2.30;;;2.08;;
6735;SDS011;3405;50.576;12.364;2023-06-14T08:09:23;3.03;;;2.35;;
6735;SDS011;3405;50.576;12.364;2023-06-14T08:11:50;4.20;;;2.33;;
6735;SDS011;3405;50.576;12.364;2023-06-14T08:14:16;2.83;;;2.53;;
6735;SDS011;3405;50.576;12.364;2023-06-14T08:16:42;4.00;;;2.33;;
6735;SDS011;3405;50.576;12.364;2023-06-14T08:19:08;2.40;;;2.08;;
6735;SDS011;3405;50.576;12.364;2023-06-14T08:21:34;4.43;;;2.03;;
6735;SDS011;3405;50.576;12.364;2023-06-14T08:24:01;2.53;;;2.30;;
6735;SDS011;3405;50.576;12.364;2023-06-14T08:26:27;2.95;;;2.22;;
6735;SDS011;3405;50.576;12.364;2023-06-14T08:28:54;4.18;;;2.20;;
6735;SDS011;3405;50.576;12.364;2023-06-14T08:31:20;3.53;;;2.20;;
6735;SDS011;3405;50.576;12.364;2023-06-14T08:33:46;2.15;;;1.95;;
6735;SDS011;3405;50.576;12.364;2023-06-14T08:36:12;2.78;;;2.20;;
6735;SDS011;3405;50.576;12.364;2023-06-14T08:38:38;2.58;;;2.38;;
6735;SDS011;3405;50.576;12.364;2023-06-14T08:41:04;2.97;;;2.00;;
6735;SDS011;3405;50.576;12.364;2023-06-14T08:43:33;2.83;;;2.25;;
6735;SDS011;3405;50.576;12.364;2023-06-14T08:46:03;2.60;;;2.17;;
6735;SDS011;3405;50.576;12.364;2023-06-14T08:48:29;5.18;;;2.30;;
6735;SDS011;3405;50.576;12.364;2023-06-14T08:50:59;2.83;;;2.42;;
6735;SDS011;3405;50.576;12.364;2023-06-14T08:53:30;2.40;;;2.20;;
6735;SDS011;3405;50.576;12.364;2023-06-14T08:55:57;3.45;;;2.10;;
6735;SDS011;3405;50.576;12.364;2023-06-14T08:58:25;5.20;;;2.30;;
6735;SDS011;3405;50.576;12.364;2023-06-14T09:00:54;4.45;;;2.17;;
6735;SDS011;3405;50.576;12.364;2023-06-14T09:03:20;2.97;;;2.10;;
6735;SDS011;3405;50.576;12.364;2023-06-14T09:05:48;3.72;;;2.00;;
6735;SDS011;3405;50.576;12.364;2023-06-14T09:08:15;4.63;;;2.00;;
6735;SDS011;3405;50.576;12.364;2023-06-14T09:10:41;2.67;;;2.40;;
6735;SDS011;3405;50.576;12.364;2023-06-14T09:13:07;3.17;;;2.30;;
6735;SDS011;3405;50.576;12.364;2023-06-14T09:15:33;2.63;;;2.22;;
6735;SDS011;3405;50.576;12.364;2023-06-14T09:18:01;5.32;;;2.30;;
6735;SDS011;3405;50.576;12.364;2023-06-14T09:20:28;2.33;;;2.10;;
6735;SDS011;3405;50.576;12.364;2023-06-14T09:22:55;4.45;;;2.13;;
6735;SDS011;3405;50.576;12.364;2023-06-14T09:25:20;5.22;;;2.28;;
6735;SDS011;3405;50.576;12.364;2023-06-14T09:27:47;5.50;;;2.38;;
6735;SDS011;3405;50.576;12.364;2023-06-14T09:30:13;3.53;;;2.30;;
6735;SDS011;3405;50.576;12.364;2023-06-14T09:32:39;2.20;;;2.00;;
6735;SDS011;3405;50.576;12.364;2023-06-14T09:35:06;3.30;;;2.35;;
6735;SDS011;3405;50.576;12.364;2023-06-14T09:37:32;5.00;;;2.40;;
6735;SDS011;3405;50.576;12.364;2023-06-14T09:39:58;2.28;;;2.08;;
6735;SDS011;3405;50.576;12.364;2023-06-14T09:42:24;4.05;;;2.65;;
6735;SDS011;3405;50.576;12.364;2023-06-14T09:44:55;4.55;;;2.60;;
6735;SDS011;3405;50.576;12.364;2023-06-14T09:47:22;7.57;;;3.38;;
6735;SDS011;3405;50.576;12.364;2023-06-14T09:49:48;2.53;;;2.33;;
6735;SDS011;3405;50.576;12.364;2023-06-14T09:52:15;2.92;;;2.03;;
6735;SDS011;3405;50.576;12.364;2023-06-14T09:54:42;3.40;;;2.13;;
6735;SDS011;3405;50.576;12.364;2023-06-14T09:57:09;4.47;;;2.38;;
6735;SDS011;3405;50.576;12.364;2023-06-14T09:59:36;2.92;;;2.40;;
6735;SDS011;3405;50.576;12.364;2023-06-14T10:02:08;3.67;;;2.50;;
6735;SDS011;3405;50.576;12.364;2023-06-14T10:04:35;3.20;;;2.70;;
6735;SDS011;3405;50.576;12.364;2023-06-14T10:07:01;2.45;;;2.20;;
6735;SDS011;3405;50.576;12.364;2023-06-14T10:09:27;3.53;;;2.65;;
6735;SDS011;3405;50.576;12.364;2023-06-14T10:11:53;3.00;;;2.42;;
6735;SDS011;3405;50.576;12.364;2023-06-14T10:14:20;3.33;;;2.20;;
6735;SDS011;3405;50.576;12.364;2023-06-14T10:17:06;5.20;;;2.47;;
6735;SDS011;3405;50.576;12.364;2023-06-14T10:19:34;3.67;;;2.38;;
6735;SDS011;3405;50.576;12.364;2023-06-14T10:22:04;3.75;;;2.53;;
6735;SDS011;3405;50.576;12.364;2023-06-14T10:24:33;2.50;;;2.30;;
6735;SDS011;3405;50.576;12.364;2023-06-14T10:26:59;2.67;;;2.30;;
6735;SDS011;3405;50.576;12.364;2023-06-14T10:29:26;2.80;;;2.33;;
6735;SDS011;3405;50.576;12.364;2023-06-14T10:31:57;5.57;;;2.70;;
6735;SDS011;3405;50.576;12.364;2023-06-14T10:34:27;2.20;;;2.00;;
6735;SDS011;3405;50.576;12.364;2023-06-14T10:37:11;2.78;;;2.30;;
6735;SDS011;3405;50.576;12.364;2023-06-14T10:39:44;3.95;;;2.22;;
6735;SDS011;3405;50.576;12.364;2023-06-14T10:42:13;4.63;;;2.30;;
6735;SDS011;3405;50.576;12.364;2023-06-14T10:50:10;2.88;;;2.35;;
6735;SDS011;3405;50.576;12.364;2023-06-14T10:52:42;4.80;;;2.17;;
6735;SDS011;3405;50.576;12.364;2023-06-14T10:55:12;3.08;;;2.35;;
6735;SDS011;3405;50.576;12.364;2023-06-14T11:00:29;2.42;;;2.22;;
6735;SDS011;3405;50.576;12.364;2023-06-14T11:10:41;5.53;;;2.33;;
6735;SDS011;3405;50.576;12.364;2023-06-14T11:13:07;8.00;;;2.70;;
6735;SDS011;3405;50.576;12.364;2023-06-14T11:15:34;4.20;;;2.30;;
6735;SDS011;3405;50.576;12.364;2023-06-14T11:18:01;3.55;;;2.40;;
6735;SDS011;3405;50.576;12.364;2023-06-14T11:20:29;2.90;;;2.05;;
6735;SDS011;3405;50.576;12.364;2023-06-14T11:22:55;4.93;;;2.40;;
6735;SDS011;3405;50.576;12.364;2023-06-14T11:25:21;2.38;;;2.17;;
6735;SDS011;3405;50.576;12.364;2023-06-14T11:27:48;3.40;;;2.40;;
6735;SDS011;3405;50.576;12.364;2023-06-14T11:30:15;3.33;;;2.10;;
6735;SDS011;3405;50.576;12.364;2023-06-14T11:32:41;4.22;;;2.20;;
6735;SDS011;3405;50.576;12.364;2023-06-14T11:35:07;4.97;;;2.28;;
6735;SDS011;3405;50.576;12.364;2023-06-14T11:37:35;3.03;;;2.70;;
6735;SDS011;3405;50.576;12.364;2023-06-14T11:40:06;4.38;;;2.20;;
6735;SDS011;3405;50.576;12.364;2023-06-14T11:42:36;2.22;;;2.03;;
6735;SDS011;3405;50.576;12.364;2023-06-14T11:45:02;5.05;;;2.28;;
6735;SDS011;3405;50.576;12.364;2023-06-14T11:47:33;3.20;;;2.10;;
6735;SDS011;3405;50.576;12.364;2023-06-14T11:49:59;2.97;;;2.40;;
6735;SDS011;3405;50.576;12.364;2023-06-14T11:52:25;2.45;;;2.03;;
6735;SDS011;3405;50.576;12.364;2023-06-14T11:54:52;3.45;;;2.20;;
6735;SDS011;3405;50.576;12.364;2023-06-14T11:57:18;2.50;;;2.30;;
6735;SDS011;3405;50.576;12.364;2023-06-14T11:59:44;5.60;;;2.58;;
6735;SDS011;3405;50.576;12.364;2023-06-14T12:02:14;3.00;;;2.38;;
6735;SDS011;3405;50.576;12.364;2023-06-14T12:04:41;3.00;;;2.35;;
6735;SDS011;3405;50.576;12.364;2023-06-14T12:07:13;3.78;;;2.50;;
6735;SDS011;3405;50.576;12.364;2023-06-14T12:09:41;6.35;;;2.85;;
6735;SDS011;3405;50.576;12.364;2023-06-14T12:12:10;5.97;;;2.60;;
6735;SDS011;3405;50.576;12.364;2023-06-14T12:14:37;4.43;;;2.42;;
6735;SDS011;3405;50.576;12.364;2023-06-14T12:17:07;3.60;;;2.30;;
6735;SDS011;3405;50.576;12.364;2023-06-14T12:19:33;3.25;;;2.50;;
6735;SDS011;3405;50.576;12.364;2023-06-14T12:22:07;4.75;;;2.20;;
6735;SDS011;3405;50.576;12.364;2023-06-14T12:24:34;58.58;;;5.85;;
6735;SDS011;3405;50.576;12.364;2023-06-14T12:27:00;59.75;;;5.85;;
6735;SDS011;3405;50.576;12.364;2023-06-14T12:29:28;29.52;;;3.53;;
6735;SDS011;3405;50.576;12.364;2023-06-14T12:31:54;13.20;;;2.75;;
6735;SDS011;3405;50.576;12.364;2023-06-14T12:34:22;13.30;;;2.97;;
6735;SDS011;3405;50.576;12.364;2023-06-14T12:36:48;15.13;;;4.35;;
6735;SDS011;3405;50.576;12.364;2023-06-14T12:39:14;14.60;;;4.65;;
6735;SDS011;3405;50.576;12.364;2023-06-14T12:41:40;10.10;;;3.90;;
6735;SDS011;3405;50.576;12.364;2023-06-14T12:44:06;15.07;;;4.07;;
6735;SDS011;3405;50.576;12.364;2023-06-14T12:46:33;7.13;;;3.50;;
6735;SDS011;3405;50.576;12.364;2023-06-14T12:48:59;7.32;;;3.33;;
6735;SDS011;3405;50.576;12.364;2023-06-14T12:51:25;7.07;;;2.88;;
6735;SDS011;3405;50.576;12.364;2023-06-14T12:53:51;6.20;;;2.70;;
6735;SDS011;3405;50.576;12.364;2023-06-14T12:56:17;6.75;;;3.00;;
6735;SDS011;3405;50.576;12.364;2023-06-14T12:58:43;5.70;;;2.45;;
6735;SDS011;3405;50.576;12.364;2023-06-14T13:01:09;4.50;;;2.40;;
6735;SDS011;3405;50.576;12.364;2023-06-14T13:03:35;4.03;;;2.80;;
6735;SDS011;3405;50.576;12.364;2023-06-14T13:06:01;4.68;;;2.47;;
6735;SDS011;3405;50.576;12.364;2023-06-14T13:08:29;4.72;;;2.70;;
6735;SDS011;3405;50.576;12.364;2023-06-14T13:10:55;6.10;;;2.67;;
6735;SDS011;3405;50.576;12.364;2023-06-14T13:13:21;4.32;;;2.28;;
6735;SDS011;3405;50.576;12.364;2023-06-14T13:15:47;3.47;;;2.45;;
6735;SDS011;3405;50.576;12.364;2023-06-14T13:18:14;4.35;;;2.42;;
6735;SDS011;3405;50.576;12.364;2023-06-14T13:20:40;2.55;;;2.35;;
6735;SDS011;3405;50.576;12.364;2023-06-14T13:23:06;4.55;;;2.53;;
6735;SDS011;3405;50.576;12.364;2023-06-14T13:25:33;4.43;;;2.53;;
6735;SDS011;3405;50.576;12.364;2023-06-14T13:27:59;2.35;;;2.15;;
6735;SDS011;3405;50.576;12.364;2023-06-14T13:30:25;2.88;;;2.50;;
6735;SDS011;3405;50.576;12.364;2023-06-14T13:32:51;2.67;;;2.42;;
6735;SDS011;3405;50.576;12.364;2023-06-14T13:35:17;2.40;;;2.20;;
6735;SDS011;3405;50.576;12.364;2023-06-14T13:37:43;3.45;;;2.95;;
6735;SDS011;3405;50.576;12.364;2023-06-14T13:40:10;2.33;;;2.13;;
6735;SDS011;3405;50.576;12.364;2023-06-14T13:42:36;4.32;;;2.22;;
6735;SDS011;3405;50.576;12.364;2023-06-14T13:45:05;2.88;;;2.47;;
6735;SDS011;3405;50.576;12.364;2023-06-14T13:47:31;2.40;;;2.20;;
6735;SDS011;3405;50.576;12.364;2023-06-14T13:49:57;2.40;;;2.20;;
6735;SDS011;3405;50.576;12.364;2023-06-14T13:52:23;2.25;;;2.05;;
6735;SDS011;3405;50.576;12.364;2023-06-14T13:54:49;3.05;;;2.20;;
6735;SDS011;3405;50.576;12.364;2023-06-14T13:57:16;3.05;;;1.98;;
6735;SDS011;3405;50.576;12.364;2023-06-14T13:59:42;2.03;;;1.80;;
6735;SDS011;3405;50.576;12.364;2023-06-14T14:02:11;2.97;;;2.50;;
6735;SDS011;3405;50.576;12.364;2023-06-14T14:04:37;1.90;;;1.80;;
6735;SDS011;3405;50.576;12.364;2023-06-14T14:07:04;4.43;;;2.00;;
6735;SDS011;3405;50.576;12.364;2023-06-14T14:09:30;3.20;;;2.20;;
6735;SDS011;3405;50.576;12.364;2023-06-14T14:11:56;2.45;;;1.90;;
6735;SDS011;3405;50.576;12.364;2023-06-14T14:14:22;2.28;;;2.08;;
6735;SDS011;3405;50.576;12.364;2023-06-14T14:16:48;5.32;;;2.17;;
6735;SDS011;3405;50.576;12.364;2023-06-14T14:19:16;2.22;;;2.03;;
6735;SDS011;3405;50.576;12.364;2023-06-14T14:21:43;2.25;;;2.05;;
6735;SDS011;3405;50.576;12.364;2023-06-14T14:24:09;2.75;;;1.88;;
6735;SDS011;3405;50.576;12.364;2023-06-14T14:26:35;2.50;;;2.28;;
6735;SDS011;3405;50.576;12.364;2023-06-14T14:29:01;2.00;;;1.65;;
6735;SDS011;3405;50.576;12.364;2023-06-14T14:31:27;1.80;;;1.70;;
6735;SDS011;3405;50.576;12.364;2023-06-14T14:33:53;2.35;;;2.10;;
6735;SDS011;3405;50.576;12.364;2023-06-14T14:36:19;1.85;;;1.75;;
6735;SDS011;3405;50.576;12.364;2023-06-14T14:38:45;2.83;;;2.25;;
6735;SDS011;3405;50.576;12.364;2023-06-14T14:41:12;2.40;;;2.10;;
6735;SDS011;3405;50.576;12.364;2023-06-14T14:43:38;2.63;;;2.20;;
6735;SDS011;3405;50.576;12.364;2023-06-14T14:46:03;4.90;;;2.10;;
6735;SDS011;3405;50.576;12.364;2023-06-14T14:48:30;2.47;;;2.15;;
6735;SDS011;3405;50.576;12.364;2023-06-14T14:50:55;2.67;;;2.00;;
6735;SDS011;3405;50.576;12.364;2023-06-14T14:53:22;2.22;;;2.03;;
6735;SDS011;3405;50.576;12.364;2023-06-14T14:55:48;2.88;;;2.30;;
6735;SDS011;3405;50.576;12.364;2023-06-14T14:58:14;2.20;;;1.90;;
6735;SDS011;3405;50.576;12.364;2023-06-14T15:00:46;2.35;;;2.15;;
6735;SDS011;3405;50.576;12.364;2023-06-14T15:03:13;1.95;;;1.75;;
6735;SDS011;3405;50.576;12.364;2023-06-14T15:05:39;3.70;;;1.90;;
6735;SDS011;3405;50.576;12.364;2023-06-14T15:08:05;2.22;;;2.00;;
6735;SDS011;3405;50.576;12.364;2023-06-14T15:10:36;2.30;;;2.10;;
6735;SDS011;3405;50.576;12.364;2023-06-14T15:13:02;2.00;;;1.83;;
6735;SDS011;3405;50.576;12.364;2023-06-14T15:15:28;5.97;;;2.10;;